createdAt,value
2018-02-11T00:00:31.030Z,2.60
2018-02-11T00:02:58.502Z,3.00
2018-02-11T00:05:25.981Z,3.80
2018-02-11T00:07:54.209Z,4.03
2018-02-11T00:10:21.682Z,4.50
2018-02-11T00:12:49.169Z,2.80
2018-02-11T00:15:16.625Z,4.30
2018-02-11T00:17:44.077Z,4.50
2018-02-11T00:20:11.568Z,4.10
2018-02-11T00:22:39.025Z,4.17
2018-02-11T00:25:06.485Z,4.47
2018-02-11T00:27:33.998Z,4.40
2018-02-11T00:30:01.481Z,4.70
2018-02-11T00:32:29.742Z,3.37
2018-02-11T00:34:57.198Z,3.90
2018-02-11T00:37:30.394Z,4.80
2018-02-11T00:39:57.902Z,4.20
2018-02-11T00:42:25.354Z,4.10
2018-02-11T00:44:52.808Z,4.40
2018-02-11T00:47:20.297Z,3.70
2018-02-11T00:49:47.777Z,3.17
2018-02-11T00:52:15.265Z,5.00
2018-02-11T00:54:42.741Z,2.67
2018-02-11T00:57:10.221Z,4.60
2018-02-11T00:59:37.725Z,4.00
2018-02-11T01:02:05.213Z,4.10
2018-02-11T01:04:32.665Z,2.63
2018-02-11T01:07:00.117Z,1.80
2018-02-11T01:09:28.365Z,3.67
2018-02-11T01:11:55.821Z,3.70
2018-02-11T01:14:23.310Z,4.10
2018-02-11T01:16:51.533Z,3.40
2018-02-11T01:19:18.997Z,4.37
2018-02-11T01:21:46.489Z,3.63
2018-02-11T01:24:13.944Z,3.70
2018-02-11T01:26:41.408Z,3.90
2018-02-11T01:29:09.742Z,3.67
2018-02-11T01:31:37.213Z,3.27
2018-02-11T01:34:04.673Z,3.40
2018-02-11T01:36:32.174Z,3.27
2018-02-11T01:38:59.652Z,2.27
2018-02-11T01:41:27.103Z,2.67
2018-02-11T01:43:54.588Z,2.67
2018-02-11T01:46:22.051Z,3.40
2018-02-11T01:48:49.528Z,1.90
2018-02-11T01:51:17.002Z,3.10
2018-02-11T01:53:44.481Z,2.13
2018-02-11T01:56:12.719Z,3.50
2018-02-11T01:58:40.212Z,2.87
2018-02-11T02:01:08.460Z,3.00
2018-02-11T02:03:35.906Z,2.93
2018-02-11T02:06:03.386Z,3.67
2018-02-11T02:08:30.862Z,2.83
2018-02-11T02:10:59.118Z,3.97
2018-02-11T02:13:26.561Z,3.00
2018-02-11T02:15:54.018Z,3.80
2018-02-11T02:18:21.532Z,3.40
2018-02-11T02:20:48.973Z,2.60
2018-02-11T02:23:17.221Z,2.50
2018-02-11T02:25:44.694Z,2.30
2018-02-11T02:28:12.980Z,3.63
2018-02-11T02:30:40.485Z,2.77
2018-02-11T02:33:07.973Z,2.70
2018-02-11T02:35:35.427Z,3.30
2018-02-11T02:38:02.894Z,2.70
2018-02-11T02:40:30.361Z,2.90
2018-02-11T02:42:57.821Z,2.53
2018-02-11T02:45:25.315Z,2.70
2018-02-11T02:47:52.786Z,3.10
2018-02-11T02:50:20.323Z,2.60
2018-02-11T02:52:47.776Z,2.90
2018-02-11T02:55:16.018Z,3.00
2018-02-11T02:57:43.502Z,3.00
2018-02-11T03:00:11.734Z,2.60
2018-02-11T03:02:39.230Z,2.00
2018-02-11T03:05:07.458Z,2.27
2018-02-11T03:07:34.937Z,2.60
2018-02-11T03:10:02.402Z,2.60
2018-02-11T03:12:29.880Z,2.80
2018-02-11T03:14:58.104Z,4.20
2018-02-11T03:17:25.589Z,3.00
2018-02-11T03:19:53.073Z,2.77
2018-02-11T03:22:21.293Z,2.70
2018-02-11T03:24:48.786Z,1.63
2018-02-11T03:27:16.240Z,2.77
2018-02-11T03:29:43.685Z,1.80
2018-02-11T03:32:11.161Z,2.43
2018-02-11T03:34:38.630Z,2.80
2018-02-11T03:37:06.114Z,2.50
2018-02-11T03:39:33.581Z,3.03
2018-02-11T03:42:01.032Z,2.70
2018-02-11T03:44:28.522Z,2.40
2018-02-11T03:46:55.992Z,2.33
2018-02-11T03:49:23.470Z,2.53
2018-02-11T03:51:50.953Z,1.90
2018-02-11T03:54:18.402Z,1.90
2018-02-11T03:56:45.853Z,1.40
2018-02-11T03:59:13.320Z,1.47
2018-02-11T04:01:40.786Z,1.60
2018-02-11T04:04:08.538Z,2.63
2018-02-11T04:06:36.293Z,2.00
2018-02-11T04:09:03.773Z,2.63
2018-02-11T04:11:31.255Z,2.43
2018-02-11T04:13:58.738Z,1.40
2018-02-11T04:16:26.223Z,1.90
2018-02-11T04:18:53.712Z,3.87
2018-02-11T04:21:21.928Z,4.10
2018-02-11T04:23:49.419Z,4.60
2018-02-11T04:26:16.875Z,5.20
2018-02-11T04:28:44.334Z,2.93
2018-02-11T04:31:11.820Z,1.90
2018-02-11T04:33:40.046Z,2.50
2018-02-11T04:36:08.286Z,1.27
2018-02-11T04:38:35.731Z,1.60
2018-02-11T04:41:03.200Z,1.03
2018-02-11T04:43:30.700Z,1.43
2018-02-11T04:45:58.149Z,2.37
2018-02-11T04:48:25.660Z,1.93
2018-02-11T04:50:53.881Z,2.03
2018-02-11T04:53:21.349Z,1.33
2018-02-11T04:55:48.824Z,1.33
2018-02-11T04:58:16.302Z,1.50
2018-02-11T05:00:44.541Z,0.90
2018-02-11T05:03:12.025Z,0.70
2018-02-11T05:05:39.473Z,1.30
2018-02-11T05:08:07.049Z,0.87
2018-02-11T05:10:34.503Z,0.60
2018-02-11T05:13:01.961Z,1.43
2018-02-11T05:15:29.453Z,0.63
2018-02-11T05:17:56.909Z,1.00
2018-02-11T05:20:24.388Z,0.90
2018-02-11T05:22:51.857Z,1.40
2018-02-11T05:25:20.202Z,0.70
2018-02-11T05:27:47.681Z,1.30
2018-02-11T05:30:15.152Z,1.00
2018-02-11T05:32:42.633Z,0.60
2018-02-11T05:35:10.085Z,0.87
2018-02-11T05:37:37.539Z,0.90
2018-02-11T05:40:05.026Z,0.70
2018-02-11T05:42:32.478Z,0.77
2018-02-11T05:44:59.961Z,0.50
2018-02-11T05:47:27.433Z,0.97
2018-02-11T05:49:54.910Z,0.50
2018-02-11T05:52:22.372Z,0.57
2018-02-11T05:54:49.870Z,0.90
2018-02-11T05:57:17.322Z,0.60
2018-02-11T05:59:44.772Z,0.60
2018-02-11T06:02:12.259Z,0.80
2018-02-11T06:04:40.502Z,0.80
2018-02-11T06:07:07.977Z,0.60
2018-02-11T06:09:35.453Z,0.60
2018-02-11T06:12:03.701Z,0.50
2018-02-11T06:14:31.162Z,0.77
2018-02-11T06:16:58.628Z,1.00
2018-02-11T06:19:26.085Z,0.70
2018-02-11T06:21:53.581Z,0.80
2018-02-11T06:24:21.033Z,0.70
2018-02-11T06:26:48.510Z,0.63
2018-02-11T06:29:15.985Z,0.67
2018-02-11T06:31:43.445Z,0.67
2018-02-11T06:34:10.987Z,0.80
2018-02-11T06:36:38.438Z,0.83
2018-02-11T06:39:05.964Z,0.50
2018-02-11T06:41:34.204Z,0.80
2018-02-11T06:44:01.685Z,0.73
2018-02-11T06:46:29.161Z,1.00
2018-02-11T06:48:56.617Z,0.60
2018-02-11T06:51:24.852Z,0.73
2018-02-11T06:53:52.305Z,0.80
2018-02-11T06:56:19.785Z,0.63
2018-02-11T06:58:47.277Z,1.10
2018-02-11T07:01:15.514Z,0.70
2018-02-11T07:03:42.970Z,1.00
2018-02-11T07:06:10.441Z,1.10
2018-02-11T07:08:37.932Z,1.00
2018-02-11T07:11:06.322Z,1.00
2018-02-11T07:13:33.771Z,0.87
2018-02-11T07:16:01.252Z,1.20
2018-02-11T07:18:28.733Z,1.20
2018-02-11T07:20:56.973Z,1.20
2018-02-11T07:23:24.450Z,1.70
2018-02-11T07:25:51.926Z,1.37
2018-02-11T07:28:19.393Z,2.70
2018-02-11T07:30:47.649Z,1.87
2018-02-11T07:33:15.104Z,1.03
2018-02-11T07:35:42.582Z,2.10
2018-02-11T07:38:10.086Z,2.30
2018-02-11T07:40:38.333Z,1.87
2018-02-11T07:43:05.794Z,2.20
2018-02-11T07:45:33.286Z,2.00
2018-02-11T07:48:01.586Z,1.60
2018-02-11T07:50:29.054Z,2.73
2018-02-11T07:52:56.506Z,2.77
2018-02-11T07:55:23.986Z,3.53
2018-02-11T07:57:51.462Z,2.03
2018-02-11T08:00:18.917Z,2.87
2018-02-11T08:02:46.404Z,3.10
2018-02-11T08:05:13.913Z,3.00
2018-02-11T08:07:42.142Z,3.10
2018-02-11T08:10:09.598Z,2.50
2018-02-11T08:12:37.248Z,3.00
2018-02-11T08:15:04.709Z,3.67
2018-02-11T08:17:32.969Z,3.23
2018-02-11T08:20:00.500Z,3.37
2018-02-11T08:22:28.009Z,3.10
2018-02-11T08:24:56.295Z,3.27
2018-02-11T08:27:23.855Z,4.07
2018-02-11T08:29:52.209Z,3.73
2018-02-11T08:32:19.778Z,4.03
2018-02-11T08:34:47.297Z,3.33
2018-02-11T08:37:14.899Z,1.83
2018-02-11T08:39:43.169Z,3.73
2018-02-11T08:42:10.681Z,3.43
2018-02-11T08:44:38.192Z,3.00
2018-02-11T08:47:06.474Z,3.17
2018-02-11T08:49:34.733Z,3.20
2018-02-11T08:52:02.240Z,3.13
2018-02-11T08:54:29.768Z,3.83
2018-02-11T08:56:57.408Z,2.30
2018-02-11T08:59:24.954Z,4.63
2018-02-11T09:01:52.573Z,3.43
2018-02-11T09:04:20.808Z,3.90
2018-02-11T09:06:48.327Z,2.87
2018-02-11T09:09:17.612Z,3.60
2018-02-11T09:11:46.103Z,4.00
2018-02-11T09:14:13.939Z,2.97
2018-02-11T09:16:41.634Z,2.63
2018-02-11T09:19:09.388Z,3.43
2018-02-11T09:21:37.820Z,3.43
2018-02-11T09:24:05.538Z,3.87
2018-02-11T09:26:33.196Z,2.80
2018-02-11T09:29:00.998Z,2.97
2018-02-11T09:31:28.755Z,3.20
2018-02-11T09:33:56.601Z,2.83
2018-02-11T09:36:24.208Z,2.90
2018-02-11T09:38:51.878Z,2.30
2018-02-11T09:41:19.593Z,2.10
2018-02-11T09:43:47.322Z,1.90
2018-02-11T09:46:14.940Z,3.23
2018-02-11T09:48:42.685Z,2.37
2018-02-11T09:51:10.388Z,2.63
2018-02-11T09:53:38.141Z,2.03
2018-02-11T09:56:05.864Z,2.37
2018-02-11T09:58:34.319Z,1.37
2018-02-11T10:01:02.181Z,1.37
2018-02-11T10:03:29.876Z,1.20
2018-02-11T10:05:58.307Z,2.23
2018-02-11T10:08:26.020Z,1.80
2018-02-11T10:10:53.711Z,1.07
2018-02-11T10:13:21.442Z,1.40
2018-02-11T10:15:49.174Z,1.20
2018-02-11T10:18:16.914Z,1.20
2018-02-11T10:20:44.808Z,1.60
2018-02-11T10:23:12.423Z,1.23
2018-02-11T10:25:40.613Z,1.40
2018-02-11T10:28:08.443Z,1.07
2018-02-11T10:30:36.160Z,1.30
2018-02-11T10:33:03.805Z,1.20
2018-02-11T10:35:31.547Z,0.70
2018-02-11T10:37:59.212Z,0.90
2018-02-11T10:40:26.885Z,1.70
2018-02-11T10:42:54.568Z,1.13
2018-02-11T10:45:22.347Z,1.50
2018-02-11T10:47:50.093Z,0.90
2018-02-11T10:50:17.738Z,1.50
2018-02-11T10:52:45.450Z,1.67
2018-02-11T10:55:13.078Z,1.60
2018-02-11T10:57:40.680Z,0.63
2018-02-11T11:00:08.372Z,1.00
2018-02-11T11:02:36.813Z,0.97
2018-02-11T11:05:04.840Z,1.67
2018-02-11T11:07:32.530Z,1.37
2018-02-11T11:10:00.238Z,1.03
2018-02-11T11:12:28.716Z,1.40
2018-02-11T11:14:57.265Z,2.40
2018-02-11T11:17:24.881Z,1.30
2018-02-11T11:19:53.725Z,2.60
2018-02-11T11:22:21.497Z,1.50
2018-02-11T11:24:49.192Z,1.97
2018-02-11T11:27:16.904Z,1.30
2018-02-11T11:29:44.750Z,1.90
2018-02-11T11:32:12.353Z,2.33
2018-02-11T11:34:40.070Z,0.70
2018-02-11T11:37:07.741Z,1.87
2018-02-11T11:39:35.418Z,1.07
2018-02-11T11:42:03.184Z,1.37
2018-02-11T11:44:30.953Z,2.17
2018-02-11T11:46:58.683Z,0.93
2018-02-11T11:49:26.479Z,0.87
2018-02-11T11:51:54.284Z,0.90
2018-02-11T11:54:22.082Z,1.17
2018-02-11T11:56:49.786Z,1.37
2018-02-11T11:59:17.707Z,1.13
2018-02-11T12:01:45.470Z,1.70
2018-02-11T12:04:13.341Z,1.13
2018-02-11T12:06:41.077Z,0.57
2018-02-11T12:09:08.804Z,2.10
2018-02-11T12:11:36.522Z,1.20
2018-02-11T12:14:05.038Z,1.50
2018-02-11T12:16:32.705Z,1.10
2018-02-11T12:19:00.443Z,2.30
2018-02-11T12:21:28.148Z,0.80
2018-02-11T12:23:55.977Z,1.10
2018-02-11T12:26:23.859Z,1.30
2018-02-11T12:28:51.546Z,1.20
2018-02-11T12:31:19.233Z,0.70
2018-02-11T12:33:46.893Z,1.00
2018-02-11T12:36:14.933Z,1.13
2018-02-11T12:38:42.642Z,1.50
2018-02-11T12:41:10.482Z,1.00
2018-02-11T12:43:38.154Z,0.80
2018-02-11T12:46:06.033Z,1.47
2018-02-11T12:48:33.701Z,1.10
2018-02-11T12:51:02.449Z,0.90
2018-02-11T12:53:30.191Z,1.40
2018-02-11T12:55:57.840Z,1.80
2018-02-11T12:58:25.659Z,0.90
2018-02-11T13:00:53.392Z,0.70
2018-02-11T13:03:21.148Z,0.90
2018-02-11T13:05:48.791Z,1.00
2018-02-11T13:08:17.248Z,0.90
2018-02-11T13:10:44.976Z,1.77
2018-02-11T13:13:12.590Z,1.23
2018-02-11T13:15:41.050Z,1.27
2018-02-11T13:18:08.790Z,0.97
2018-02-11T13:20:36.463Z,0.97
2018-02-11T13:23:04.454Z,0.80
2018-02-11T13:25:32.149Z,1.13
2018-02-11T13:27:59.925Z,1.03
2018-02-11T13:30:27.645Z,1.30
2018-02-11T13:32:55.633Z,1.50
2018-02-11T13:35:24.052Z,1.13
2018-02-11T13:37:51.879Z,0.93
2018-02-11T13:40:20.480Z,1.07
2018-02-11T13:42:48.198Z,1.37
2018-02-11T13:45:15.920Z,0.80
2018-02-11T13:47:43.546Z,1.60
2018-02-11T13:50:11.359Z,1.10
2018-02-11T13:52:39.135Z,1.60
2018-02-11T13:55:06.897Z,0.80
2018-02-11T13:57:34.645Z,1.07
2018-02-11T14:00:02.640Z,0.70
2018-02-11T14:02:30.413Z,1.10
2018-02-11T14:04:58.222Z,1.20
2018-02-11T14:07:26.661Z,1.37
2018-02-11T14:09:55.429Z,1.23
2018-02-11T14:12:23.288Z,1.70
2018-02-11T14:14:51.016Z,0.90
2018-02-11T14:17:19.394Z,1.10
2018-02-11T14:19:47.832Z,1.17
2018-02-11T14:22:15.624Z,0.60
2018-02-11T14:24:43.364Z,0.87
2018-02-11T14:27:11.111Z,0.97
2018-02-11T14:29:38.782Z,0.57
2018-02-11T14:32:06.494Z,0.90
2018-02-11T14:34:34.274Z,0.67
2018-02-11T14:37:01.938Z,1.40
2018-02-11T14:39:29.740Z,1.07
2018-02-11T14:41:57.423Z,0.93
2018-02-11T14:44:25.288Z,1.73
2018-02-11T14:46:52.959Z,0.73
2018-02-11T14:49:20.653Z,1.17
2018-02-11T14:51:49.111Z,0.80
2018-02-11T14:54:16.707Z,0.70
2018-02-11T14:56:45.178Z,0.70
2018-02-11T14:59:13.637Z,1.10
2018-02-11T15:01:41.329Z,1.47
2018-02-11T15:04:09.872Z,1.53
2018-02-11T15:06:37.709Z,1.17
2018-02-11T15:09:05.372Z,0.77
2018-02-11T15:11:32.992Z,1.00
2018-02-11T15:14:01.485Z,1.70
2018-02-11T15:16:29.942Z,1.00
2018-02-11T15:18:57.850Z,1.23
2018-02-11T15:21:25.547Z,1.20
2018-02-11T15:23:53.235Z,0.70
2018-02-11T15:26:21.155Z,0.80
2018-02-11T15:28:49.413Z,0.83
2018-02-11T15:31:17.383Z,0.77
2018-02-11T15:33:45.143Z,1.30
2018-02-11T15:36:12.933Z,0.83
2018-02-11T15:38:40.768Z,1.10
2018-02-11T15:41:08.531Z,1.47
2018-02-11T15:43:36.276Z,1.50
2018-02-11T15:46:04.317Z,0.73
2018-02-11T15:48:32.296Z,1.00
2018-02-11T15:51:00.898Z,1.13
2018-02-11T15:53:28.627Z,1.10
2018-02-11T15:55:56.919Z,2.10
2018-02-11T15:58:24.742Z,0.60
2018-02-11T16:00:53.485Z,2.23
2018-02-11T16:03:22.228Z,0.93
2018-02-11T16:05:49.974Z,0.70
2018-02-11T16:08:17.929Z,1.13
2018-02-11T16:10:45.996Z,3.00
2018-02-11T16:13:13.802Z,2.00
2018-02-11T16:15:41.793Z,1.10
2018-02-11T16:18:09.685Z,1.10
2018-02-11T16:20:37.531Z,0.77
2018-02-11T16:23:05.286Z,0.77
2018-02-11T16:25:33.248Z,0.80
2018-02-11T16:28:01.176Z,1.23
2018-02-11T16:30:29.751Z,0.50
2018-02-11T16:32:58.561Z,0.77
2018-02-11T16:35:26.326Z,0.70
2018-02-11T16:37:54.959Z,1.33
2018-02-11T16:40:22.829Z,0.80
2018-02-11T16:42:50.748Z,0.60
2018-02-11T16:45:18.507Z,1.00
2018-02-11T16:47:46.475Z,0.70
2018-02-11T16:50:14.186Z,0.60
2018-02-11T16:52:42.300Z,0.60
2018-02-11T16:55:10.979Z,0.97
2018-02-11T16:57:39.666Z,0.70
2018-02-11T17:00:08.659Z,1.63
2018-02-11T17:02:37.332Z,0.90
2018-02-11T17:05:05.217Z,1.03
2018-02-11T17:07:32.903Z,1.47
2018-02-11T17:10:01.831Z,1.30
2018-02-11T17:12:29.628Z,1.27
2018-02-11T17:14:57.604Z,1.50
2018-02-11T17:17:25.347Z,1.60
2018-02-11T17:19:52.943Z,1.57
2018-02-11T17:22:20.692Z,2.17
2018-02-11T17:24:48.330Z,1.57
2018-02-11T17:27:15.964Z,1.40
2018-02-11T17:29:45.027Z,1.23
2018-02-11T17:32:12.713Z,0.80
2018-02-11T17:34:40.525Z,1.63
2018-02-11T17:37:08.287Z,1.50
2018-02-11T17:39:36.137Z,1.43
2018-02-11T17:42:03.926Z,1.33
2018-02-11T17:44:32.597Z,0.73
2018-02-11T17:47:00.210Z,0.63
2018-02-11T17:49:27.915Z,0.90
2018-02-11T17:51:55.659Z,0.80
2018-02-11T17:54:24.168Z,0.97
2018-02-11T17:56:51.872Z,0.77
2018-02-11T17:59:19.867Z,1.00
2018-02-11T18:01:48.643Z,1.13
2018-02-11T18:04:17.225Z,0.83
2018-02-11T18:06:45.376Z,0.77
2018-02-11T18:09:13.127Z,1.00
2018-02-11T18:11:40.943Z,0.70
2018-02-11T18:14:08.906Z,0.70
2018-02-11T18:16:37.463Z,0.73
2018-02-11T18:19:06.085Z,1.00
2018-02-11T18:21:33.885Z,0.77
2018-02-11T18:24:01.583Z,1.07
2018-02-11T18:26:29.412Z,0.93
2018-02-11T18:28:57.176Z,0.83
2018-02-11T18:31:25.175Z,0.90
2018-02-11T18:33:52.936Z,0.80
2018-02-11T18:36:20.818Z,0.80
2018-02-11T18:38:48.709Z,0.80
2018-02-11T18:41:16.369Z,0.77
2018-02-11T18:43:44.167Z,0.80
2018-02-11T18:46:11.856Z,0.90
2018-02-11T18:48:39.497Z,1.40
2018-02-11T18:51:07.234Z,1.10
2018-02-11T18:53:35.846Z,1.00
2018-02-11T18:56:03.623Z,0.80
2018-02-11T18:58:31.333Z,1.30
2018-02-11T19:00:59.157Z,0.53
2018-02-11T19:03:26.841Z,1.33
2018-02-11T19:05:54.712Z,0.87
2018-02-11T19:08:22.527Z,0.80
2018-02-11T19:10:50.985Z,1.03
2018-02-11T19:13:18.778Z,1.30
2018-02-11T19:15:46.521Z,0.83
2018-02-11T19:18:14.903Z,1.37
2018-02-11T19:20:42.680Z,0.87
2018-02-11T19:23:10.369Z,1.20
2018-02-11T19:25:38.144Z,1.53
2018-02-11T19:28:05.956Z,1.00
2018-02-11T19:30:33.638Z,1.00
2018-02-11T19:33:02.730Z,1.43
2018-02-11T19:35:30.576Z,1.37
2018-02-11T19:37:58.446Z,1.90
2018-02-11T19:40:26.218Z,1.50
2018-02-11T19:42:54.374Z,1.63
2018-02-11T19:45:22.263Z,1.80
2018-02-11T19:47:50.247Z,1.73
2018-02-11T19:50:18.133Z,1.47
2018-02-11T19:52:46.061Z,1.20
2018-02-11T19:55:14.107Z,1.50
2018-02-11T19:57:41.993Z,1.10
2018-02-11T20:00:10.114Z,1.07
2018-02-11T20:02:38.072Z,1.43
2018-02-11T20:05:06.154Z,1.70
2018-02-11T20:07:34.210Z,1.40
2018-02-11T20:10:02.792Z,1.90
2018-02-11T20:12:30.674Z,2.20
2018-02-11T20:14:58.490Z,2.20
2018-02-11T20:17:27.294Z,2.20
2018-02-11T20:19:56.218Z,1.90
2018-02-11T20:22:24.093Z,2.43
2018-02-11T20:24:51.918Z,2.40
2018-02-11T20:27:19.883Z,2.27
2018-02-11T20:29:47.849Z,1.93
2018-02-11T20:32:15.569Z,1.50
2018-02-11T20:34:43.323Z,2.17
2018-02-11T20:37:10.928Z,2.33
2018-02-11T20:39:38.936Z,3.07
2018-02-11T20:42:07.620Z,4.03
2018-02-11T20:44:35.324Z,2.37
2018-02-11T20:47:03.279Z,3.83
2018-02-11T20:49:31.263Z,2.50
2018-02-11T20:51:59.208Z,2.00
2018-02-11T20:54:26.984Z,2.97
2018-02-11T20:56:54.751Z,3.07
2018-02-11T20:59:23.463Z,4.60
2018-02-11T21:01:51.690Z,3.70
2018-02-11T21:04:20.266Z,3.00
2018-02-11T21:06:47.990Z,2.33
2018-02-11T21:09:16.619Z,1.97
2018-02-11T21:11:44.483Z,1.43
2018-02-11T21:14:12.464Z,2.60
2018-02-11T21:16:40.949Z,1.97
2018-02-11T21:19:09.468Z,1.80
2018-02-11T21:21:37.211Z,1.10
2018-02-11T21:24:04.968Z,1.70
2018-02-11T21:26:32.720Z,1.80
2018-02-11T21:29:00.677Z,1.93
2018-02-11T21:31:28.150Z,1.70
2018-02-11T21:33:56.405Z,1.77
2018-02-11T21:36:23.924Z,1.57
2018-02-11T21:38:51.377Z,2.80
2018-02-11T21:41:18.833Z,2.40
2018-02-11T21:43:46.333Z,1.00
2018-02-11T21:46:13.806Z,1.80
2018-02-11T21:48:41.294Z,1.80
2018-02-11T21:51:08.778Z,1.17
2018-02-11T21:53:36.249Z,1.30
2018-02-11T21:56:03.833Z,1.30
2018-02-11T21:58:31.313Z,1.20
2018-02-11T22:00:58.821Z,1.00
2018-02-11T22:03:26.300Z,1.57
2018-02-11T22:05:53.782Z,1.80
2018-02-11T22:08:21.232Z,1.20
2018-02-11T22:10:48.722Z,1.23
2018-02-11T22:13:16.182Z,2.07
2018-02-11T22:15:43.656Z,1.37
2018-02-11T22:18:11.133Z,2.03
2018-02-11T22:20:38.588Z,1.40
2018-02-11T22:23:06.052Z,0.90
2018-02-11T22:25:33.541Z,1.50
2018-02-11T22:28:01.054Z,1.10
2018-02-11T22:30:28.498Z,1.30
2018-02-11T22:32:55.964Z,1.40
2018-02-11T22:35:23.455Z,1.17
2018-02-11T22:37:50.924Z,1.37
2018-02-11T22:40:18.421Z,1.50
2018-02-11T22:42:46.640Z,1.43
2018-02-11T22:45:14.129Z,1.53
2018-02-11T22:47:41.602Z,1.97
2018-02-11T22:50:09.889Z,1.73
2018-02-11T22:52:37.367Z,1.70
2018-02-11T22:55:04.845Z,2.10
2018-02-11T22:57:32.308Z,2.50
2018-02-11T22:59:59.810Z,2.50
2018-02-11T23:02:27.263Z,3.13
2018-02-11T23:04:54.721Z,2.50
2018-02-11T23:07:22.220Z,3.10
2018-02-11T23:09:49.785Z,2.70
2018-02-11T23:12:17.275Z,3.33
2018-02-11T23:14:44.721Z,2.90
2018-02-11T23:17:12.271Z,3.20
2018-02-11T23:19:50.514Z,3.40
2018-02-11T23:22:17.994Z,2.30
2018-02-11T23:24:45.472Z,2.60
2018-02-11T23:27:12.941Z,2.90
2018-02-11T23:29:40.427Z,3.23
2018-02-11T23:32:07.920Z,2.97
2018-02-11T23:34:35.397Z,2.90
2018-02-11T23:37:02.872Z,2.60
2018-02-11T23:39:30.364Z,2.63
2018-02-11T23:41:57.865Z,1.30
2018-02-11T23:44:25.365Z,1.90
2018-02-11T23:46:52.808Z,1.60
2018-02-11T23:49:20.313Z,3.67
2018-02-11T23:51:47.764Z,3.80
2018-02-11T23:54:15.216Z,3.30
2018-02-11T23:56:42.888Z,3.70
2018-02-11T23:59:10.349Z,4.97
